sensor_id;sensor_type;location;lat;lon;timestamp;pressure;altitude;pressure_sealevel;temperature;humidity
13367;BME280;6752;52.612;13.630;2023-06-26T00:02:46;100913.28;;;18.33;100.00
13367;BME280;6752;52.612;13.630;2023-06-26T00:07:49;100919.92;;;18.16;100.00
13367;BME280;6752;52.612;13.630;2023-06-26T00:12:51;100918.09;;;18.27;100.00
13367;BME280;6752;52.612;13.630;2023-06-26T00:17:53;100924.06;;;18.16;100.00
13367;BME280;6752;52.612;13.630;2023-06-26T00:22:56;100916.05;;;18.15;100.00
13367;BME280;6752;52.612;13.630;2023-06-26T00:27:58;100912.77;;;18.20;100.00
13367;BME280;6752;52.612;13.630;2023-06-26T00:33:04;100920.64;;;18.20;100.00
13367;BME280;6752;52.612;13.630;2023-06-26T00:38:03;100902.20;;;18.23;100.00
13367;BME280;6752;52.612;13.630;2023-06-26T00:43:05;100906.52;;;18.12;100.00
13367;BME280;6752;52.612;13.630;2023-06-26T00:48:08;100900.47;;;18.15;100.00
13367;BME280;6752;52.612;13.630;2023-06-26T00:53:10;100904.95;;;18.23;100.00
13367;BME280;6752;52.612;13.630;2023-06-26T00:58:12;100894.20;;;18.24;100.00
13367;BME280;6752;52.612;13.630;2023-06-26T01:03:15;100893.23;;;18.24;100.00
13367;BME280;6752;52.612;13.630;2023-06-26T01:08:17;100893.09;;;18.23;100.00
13367;BME280;6752;52.612;13.630;2023-06-26T01:13:19;100882.84;;;18.21;100.00
13367;BME280;6752;52.612;13.630;2023-06-26T01:18:22;100875.17;;;18.25;100.00
13367;BME280;6752;52.612;13.630;2023-06-26T01:28:27;100877.97;;;18.12;100.00
13367;BME280;6752;52.612;13.630;2023-06-26T01:33:29;100870.36;;;18.08;100.00
13367;BME280;6752;52.612;13.630;2023-06-26T01:38:31;100869.17;;;18.17;100.00
13367;BME280;6752;52.612;13.630;2023-06-26T01:53:59;100864.05;;;18.15;100.00
13367;BME280;6752;52.612;13.630;2023-06-26T01:59:01;100862.82;;;18.17;100.00
13367;BME280;6752;52.612;13.630;2023-06-26T02:04:04;100864.03;;;18.10;100.00
13367;BME280;6752;52.612;13.630;2023-06-26T02:09:06;100860.25;;;18.00;100.00
13367;BME280;6752;52.612;13.630;2023-06-26T02:14:08;100856.28;;;17.86;100.00
13367;BME280;6752;52.612;13.630;2023-06-26T02:19:10;100860.44;;;17.88;100.00
13367;BME280;6752;52.612;13.630;2023-06-26T02:24:12;100854.95;;;17.93;100.00
13367;BME280;6752;52.612;13.630;2023-06-26T02:29:15;100849.92;;;17.83;100.00
13367;BME280;6752;52.612;13.630;2023-06-26T02:34:17;100853.94;;;17.86;100.00
13367;BME280;6752;52.612;13.630;2023-06-26T02:39:19;100843.48;;;17.91;100.00
13367;BME280;6752;52.612;13.630;2023-06-26T02:44:22;100848.48;;;17.96;100.00
13367;BME280;6752;52.612;13.630;2023-06-26T02:49:24;100846.69;;;17.96;100.00
13367;BME280;6752;52.612;13.630;2023-06-26T02:54:27;100847.61;;;18.09;100.00
13367;BME280;6752;52.612;13.630;2023-06-26T02:59:29;100833.82;;;18.09;100.00
13367;BME280;6752;52.612;13.630;2023-06-26T03:04:31;100832.04;;;18.12;100.00
13367;BME280;6752;52.612;13.630;2023-06-26T03:09:34;100830.11;;;18.12;100.00
13367;BME280;6752;52.612;13.630;2023-06-26T03:14:36;100827.36;;;18.15;100.00
13367;BME280;6752;52.612;13.630;2023-06-26T03:19:38;100819.15;;;18.22;100.00
13367;BME280;6752;52.612;13.630;2023-06-26T03:24:41;100823.03;;;18.26;100.00
13367;BME280;6752;52.612;13.630;2023-06-26T03:29:43;100821.66;;;18.31;100.00
13367;BME280;6752;52.612;13.630;2023-06-26T03:34:46;100820.98;;;18.33;100.00
13367;BME280;6752;52.612;13.630;2023-06-26T03:39:48;100816.45;;;18.37;100.00
13367;BME280;6752;52.612;13.630;2023-06-26T03:44:50;100818.70;;;18.46;100.00
13367;BME280;6752;52.612;13.630;2023-06-26T03:49:53;100811.55;;;18.52;100.00
13367;BME280;6752;52.612;13.630;2023-06-26T03:54:55;100817.75;;;18.51;100.00
13367;BME280;6752;52.612;13.630;2023-06-26T03:59:57;100814.05;;;18.56;100.00
13367;BME280;6752;52.612;13.630;2023-06-26T04:05:00;100805.36;;;18.61;100.00
13367;BME280;6752;52.612;13.630;2023-06-26T04:10:02;100807.19;;;18.64;100.00
13367;BME280;6752;52.612;13.630;2023-06-26T04:15:05;100807.52;;;18.73;100.00
13367;BME280;6752;52.612;13.630;2023-06-26T04:20:07;100798.00;;;18.82;100.00
13367;BME280;6752;52.612;13.630;2023-06-26T04:25:10;100805.91;;;18.97;100.00
13367;BME280;6752;52.612;13.630;2023-06-26T04:30:13;100810.66;;;19.42;100.00
13367;BME280;6752;52.612;13.630;2023-06-26T04:35:15;100810.93;;;19.43;100.00
13367;BME280;6752;52.612;13.630;2023-06-26T04:40:18;100811.20;;;19.47;100.00
13367;BME280;6752;52.612;13.630;2023-06-26T04:45:20;100808.31;;;19.58;100.00
13367;BME280;6752;52.612;13.630;2023-06-26T04:50:22;100812.89;;;19.66;100.00
13367;BME280;6752;52.612;13.630;2023-06-26T04:55:24;100796.53;;;19.79;100.00
13367;BME280;6752;52.612;13.630;2023-06-26T05:00:27;100796.03;;;20.20;100.00
13367;BME280;6752;52.612;13.630;2023-06-26T05:05:29;100791.28;;;20.35;100.00
13367;BME280;6752;52.612;13.630;2023-06-26T05:10:31;100790.80;;;20.78;100.00
13367;BME280;6752;52.612;13.630;2023-06-26T05:15:34;100790.56;;;20.94;100.00
13367;BME280;6752;52.612;13.630;2023-06-26T05:20:36;100792.71;;;21.60;100.00
13367;BME280;6752;52.612;13.630;2023-06-26T05:25:38;100785.76;;;21.89;100.00
13367;BME280;6752;52.612;13.630;2023-06-26T05:30:40;100783.95;;;22.30;100.00
13367;BME280;6752;52.612;13.630;2023-06-26T05:35:43;100776.75;;;22.39;100.00
13367;BME280;6752;52.612;13.630;2023-06-26T05:40:45;100774.72;;;22.35;100.00
13367;BME280;6752;52.612;13.630;2023-06-26T05:45:48;100758.95;;;22.61;100.00
13367;BME280;6752;52.612;13.630;2023-06-26T05:50:50;100751.28;;;22.74;100.00
13367;BME280;6752;52.612;13.630;2023-06-26T05:55:52;100748.78;;;22.63;100.00
13367;BME280;6752;52.612;13.630;2023-06-26T06:00:55;100744.66;;;22.51;100.00
13367;BME280;6752;52.612;13.630;2023-06-26T06:05:57;100747.66;;;22.64;100.00
13367;BME280;6752;52.612;13.630;2023-06-26T06:11:00;100743.81;;;23.42;100.00
13367;BME280;6752;52.612;13.630;2023-06-26T06:16:05;100746.58;;;23.75;100.00
13367;BME280;6752;52.612;13.630;2023-06-26T06:21:08;100741.44;;;24.37;100.00
13367;BME280;6752;52.612;13.630;2023-06-26T06:26:10;100744.30;;;24.14;100.00
13367;BME280;6752;52.612;13.630;2023-06-26T06:31:12;100747.75;;;24.42;99.26
13367;BME280;6752;52.612;13.630;2023-06-26T06:36:15;100735.70;;;25.05;94.60
13367;BME280;6752;52.612;13.630;2023-06-26T06:41:17;100735.64;;;25.42;93.41
13367;BME280;6752;52.612;13.630;2023-06-26T06:46:20;100744.56;;;25.94;91.74
13367;BME280;6752;52.612;13.630;2023-06-26T06:51:22;100733.84;;;26.56;85.70
13367;BME280;6752;52.612;13.630;2023-06-26T06:56:24;100732.70;;;27.30;80.12
13367;BME280;6752;52.612;13.630;2023-06-26T07:01:27;100729.73;;;27.76;75.64
13367;BME280;6752;52.612;13.630;2023-06-26T07:06:29;100725.80;;;27.73;70.60
13367;BME280;6752;52.612;13.630;2023-06-26T07:11:31;100721.86;;;28.41;68.34
13367;BME280;6752;52.612;13.630;2023-06-26T07:16:34;100727.45;;;27.65;70.30
13367;BME280;6752;52.612;13.630;2023-06-26T07:21:35;100718.58;;;28.50;66.44
13367;BME280;6752;52.612;13.630;2023-06-26T07:26:37;100697.80;;;29.42;63.17
13367;BME280;6752;52.612;13.630;2023-06-26T07:31:43;100701.22;;;28.83;64.05
13367;BME280;6752;52.612;13.630;2023-06-26T07:36:42;100699.44;;;29.10;61.34
13367;BME280;6752;52.612;13.630;2023-06-26T07:41:44;100693.70;;;30.15;62.18
13367;BME280;6752;52.612;13.630;2023-06-26T07:46:47;100697.26;;;29.16;60.09
13367;BME280;6752;52.612;13.630;2023-06-26T07:51:49;100693.66;;;29.27;56.98
13367;BME280;6752;52.612;13.630;2023-06-26T07:56:58;100683.19;;;31.13;55.44
13367;BME280;6752;52.612;13.630;2023-06-26T08:01:59;100678.75;;;29.31;56.17
13367;BME280;6752;52.612;13.630;2023-06-26T08:07:02;100686.81;;;30.02;57.59
13367;BME280;6752;52.612;13.630;2023-06-26T08:12:06;100669.06;;;29.57;54.86
13367;BME280;6752;52.612;13.630;2023-06-26T08:17:09;100666.48;;;31.12;54.20
13367;BME280;6752;52.612;13.630;2023-06-26T08:22:11;100667.67;;;29.35;54.32
13367;BME280;6752;52.612;13.630;2023-06-26T08:27:13;100672.13;;;29.58;54.33
13367;BME280;6752;52.612;13.630;2023-06-26T08:32:16;100663.98;;;30.28;54.23
13367;BME280;6752;52.612;13.630;2023-06-26T08:37:18;100664.59;;;30.54;53.07
13367;BME280;6752;52.612;13.630;2023-06-26T08:42:20;100650.70;;;32.26;50.86
13367;BME280;6752;52.612;13.630;2023-06-26T08:47:22;100651.20;;;31.41;50.41
13367;BME280;6752;52.612;13.630;2023-06-26T08:52:28;100648.77;;;31.55;51.45
13367;BME280;6752;52.612;13.630;2023-06-26T08:57:27;100639.83;;;33.00;50.71
13367;BME280;6752;52.612;13.630;2023-06-26T09:02:29;100637.45;;;30.80;49.74
13367;BME280;6752;52.612;13.630;2023-06-26T09:07:31;100634.47;;;30.89;49.68
13367;BME280;6752;52.612;13.630;2023-06-26T09:12:33;100631.17;;;31.60;50.22
13367;BME280;6752;52.612;13.630;2023-06-26T09:17:39;100618.68;;;32.63;49.16
13367;BME280;6752;52.612;13.630;2023-06-26T09:22:47;100619.45;;;32.07;50.01
13367;BME280;6752;52.612;13.630;2023-06-26T09:27:46;100607.89;;;32.47;48.21
13367;BME280;6752;52.612;13.630;2023-06-26T09:32:48;100610.34;;;32.49;48.32
13367;BME280;6752;52.612;13.630;2023-06-26T09:37:51;100600.84;;;32.12;48.85
13367;BME280;6752;52.612;13.630;2023-06-26T09:42:53;100594.61;;;31.78;47.05
13367;BME280;6752;52.612;13.630;2023-06-26T09:47:58;100589.48;;;31.34;47.66
13367;BME280;6752;52.612;13.630;2023-06-26T09:52:58;100591.27;;;32.81;45.82
13367;BME280;6752;52.612;13.630;2023-06-26T09:58:00;100592.80;;;32.88;46.24
13367;BME280;6752;52.612;13.630;2023-06-26T10:03:03;100569.95;;;34.61;44.11
13367;BME280;6752;52.612;13.630;2023-06-26T10:08:05;100573.73;;;33.02;44.76
13367;BME280;6752;52.612;13.630;2023-06-26T10:13:14;100559.27;;;34.64;44.20
13367;BME280;6752;52.612;13.630;2023-06-26T10:18:09;100552.80;;;34.32;43.27
13367;BME280;6752;52.612;13.630;2023-06-26T10:23:14;100546.77;;;33.79;42.67
13367;BME280;6752;52.612;13.630;2023-06-26T10:28:16;100539.46;;;33.27;43.50
13367;BME280;6752;52.612;13.630;2023-06-26T10:33:19;100546.00;;;33.19;45.13
13367;BME280;6752;52.612;13.630;2023-06-26T10:38:20;100527.03;;;34.76;43.59
13367;BME280;6752;52.612;13.630;2023-06-26T10:43:29;100519.41;;;35.24;41.49
13367;BME280;6752;52.612;13.630;2023-06-26T10:48:25;100513.45;;;36.96;41.75
13367;BME280;6752;52.612;13.630;2023-06-26T10:53:28;100519.22;;;34.81;44.24
13367;BME280;6752;52.612;13.630;2023-06-26T10:58:33;100500.55;;;35.97;42.68
13367;BME280;6752;52.612;13.630;2023-06-26T11:03:36;100501.12;;;33.13;44.51
13367;BME280;6752;52.612;13.630;2023-06-26T11:08:47;100496.96;;;34.29;45.06
13367;BME280;6752;52.612;13.630;2023-06-26T11:13:48;100499.55;;;35.19;43.48
13367;BME280;6752;52.612;13.630;2023-06-26T11:18:51;100485.77;;;34.75;42.61
13367;BME280;6752;52.612;13.630;2023-06-26T11:23:53;100489.16;;;35.08;44.89
13367;BME280;6752;52.612;13.630;2023-06-26T11:28:55;100469.91;;;34.65;42.78
13367;BME280;6752;52.612;13.630;2023-06-26T11:34:01;100476.92;;;35.24;41.97
13367;BME280;6752;52.612;13.630;2023-06-26T11:39:00;100469.81;;;35.45;39.51
13367;BME280;6752;52.612;13.630;2023-06-26T11:44:09;100459.27;;;35.18;41.76
13367;BME280;6752;52.612;13.630;2023-06-26T11:49:07;100455.37;;;34.68;41.55
13367;BME280;6752;52.612;13.630;2023-06-26T11:54:09;100443.97;;;35.51;41.19
13367;BME280;6752;52.612;13.630;2023-06-26T11:59:11;100437.99;;;34.68;44.78
13367;BME280;6752;52.612;13.630;2023-06-26T12:04:15;100422.16;;;35.02;41.79
13367;BME280;6752;52.612;13.630;2023-06-26T12:09:17;100413.13;;;34.10;42.86
13367;BME280;6752;52.612;13.630;2023-06-26T12:14:23;100404.05;;;34.90;42.84
13367;BME280;6752;52.612;13.630;2023-06-26T12:19:24;100396.14;;;33.33;42.68
13367;BME280;6752;52.612;13.630;2023-06-26T12:24:26;100386.46;;;34.48;42.23
13367;BME280;6752;52.612;13.630;2023-06-26T12:29:32;100384.88;;;36.02;43.59
13367;BME280;6752;52.612;13.630;2023-06-26T12:34:34;100375.06;;;36.45;42.28
13367;BME280;6752;52.612;13.630;2023-06-26T12:39:54;100370.68;;;34.69;40.71
13367;BME280;6752;52.612;13.630;2023-06-26T12:44:56;100364.06;;;33.62;42.88
13367;BME280;6752;52.612;13.630;2023-06-26T12:49:59;100354.14;;;33.17;44.56
13367;BME280;6752;52.612;13.630;2023-06-26T12:55:01;100357.58;;;33.78;43.27
13367;BME280;6752;52.612;13.630;2023-06-26T13:00:03;100348.15;;;35.42;43.11
13367;BME280;6752;52.612;13.630;2023-06-26T13:05:06;100333.47;;;34.67;42.66
13367;BME280;6752;52.612;13.630;2023-06-26T13:10:08;100329.23;;;33.54;42.26
13367;BME280;6752;52.612;13.630;2023-06-26T13:15:10;100312.13;;;33.40;42.38
13367;BME280;6752;52.612;13.630;2023-06-26T13:20:13;100311.56;;;32.65;44.14
13367;BME280;6752;52.612;13.630;2023-06-26T13:25:15;100303.47;;;31.72;45.92
13367;BME280;6752;52.612;13.630;2023-06-26T13:30:17;100293.15;;;31.31;45.39
13367;BME280;6752;52.612;13.630;2023-06-26T13:35:19;100285.67;;;30.68;47.11
13367;BME280;6752;52.612;13.630;2023-06-26T13:40:21;100268.98;;;31.20;48.25
13367;BME280;6752;52.612;13.630;2023-06-26T13:45:25;100267.34;;;30.59;50.95
13367;BME280;6752;52.612;13.630;2023-06-26T13:50:26;100256.02;;;30.55;50.91
13367;BME280;6752;52.612;13.630;2023-06-26T13:55:29;100247.98;;;30.48;49.99
13367;BME280;6752;52.612;13.630;2023-06-26T14:00:32;100239.47;;;30.44;50.73
13367;BME280;6752;52.612;13.630;2023-06-26T14:05:33;100238.88;;;30.11;51.97
13367;BME280;6752;52.612;13.630;2023-06-26T14:10:36;100222.02;;;30.11;50.86
13367;BME280;6752;52.612;13.630;2023-06-26T14:15:38;100220.22;;;29.81;51.73
13367;BME280;6752;52.612;13.630;2023-06-26T14:20:40;100227.55;;;30.08;53.33
13367;BME280;6752;52.612;13.630;2023-06-26T14:25:43;100211.55;;;30.28;57.35
13367;BME280;6752;52.612;13.630;2023-06-26T14:30:45;100233.52;;;29.69;57.72
13367;BME280;6752;52.612;13.630;2023-06-26T14:35:48;100255.80;;;29.77;57.68
13367;BME280;6752;52.612;13.630;2023-06-26T14:40:50;100369.93;;;26.67;69.32
13367;BME280;6752;52.612;13.630;2023-06-26T14:45:52;100441.80;;;24.75;100.00
13367;BME280;6752;52.612;13.630;2023-06-26T14:50:55;100503.91;;;22.14;100.00
13367;BME280;6752;52.612;13.630;2023-06-26T14:55:57;100534.55;;;22.42;100.00
13367;BME280;6752;52.612;13.630;2023-06-26T15:00:59;100518.27;;;22.28;100.00
13367;BME280;6752;52.612;13.630;2023-06-26T15:06:02;100508.35;;;22.31;100.00
13367;BME280;6752;52.612;13.630;2023-06-26T15:11:04;100498.19;;;22.41;100.00
13367;BME280;6752;52.612;13.630;2023-06-26T15:16:06;100524.47;;;22.55;100.00
13367;BME280;6752;52.612;13.630;2023-06-26T15:21:08;100563.50;;;22.00;100.00
13367;BME280;6752;52.612;13.630;2023-06-26T15:26:11;100550.58;;;21.39;100.00
13367;BME280;6752;52.612;13.630;2023-06-26T15:31:13;100515.80;;;21.68;100.00
13367;BME280;6752;52.612;13.630;2023-06-26T15:36:16;100523.22;;;21.32;100.00
13367;BME280;6752;52.612;13.630;2023-06-26T15:41:18;100526.09;;;20.95;100.00
13367;BME280;6752;52.612;13.630;2023-06-26T15:46:36;100517.34;;;20.42;100.00
13367;BME280;6752;52.612;13.630;2023-06-26T15:51:39;100502.16;;;21.31;100.00
13367;BME280;6752;52.612;13.630;2023-06-26T15:56:43;100502.47;;;21.60;100.00
13367;BME280;6752;52.612;13.630;2023-06-26T16:01:45;100500.83;;;22.16;100.00
13367;BME280;6752;52.612;13.630;2023-06-26T16:06:50;100504.17;;;22.25;100.00
13367;BME280;6752;52.612;13.630;2023-06-26T16:11:53;100510.20;;;21.82;100.00
13367;BME280;6752;52.612;13.630;2023-06-26T16:16:58;100515.68;;;21.78;100.00
13367;BME280;6752;52.612;13.630;2023-06-26T16:22:00;100522.97;;;21.71;100.00
13367;BME280;6752;52.612;13.630;2023-06-26T16:27:03;100518.88;;;21.57;100.00
13367;BME280;6752;52.612;13.630;2023-06-26T16:32:09;100516.56;;;21.92;100.00
13367;BME280;6752;52.612;13.630;2023-06-26T16:37:08;100523.19;;;22.24;100.00
13367;BME280;6752;52.612;13.630;2023-06-26T16:42:11;100519.78;;;22.11;100.00
13367;BME280;6752;52.612;13.630;2023-06-26T16:47:14;100522.90;;;22.07;100.00
13367;BME280;6752;52.612;13.630;2023-06-26T16:52:16;100524.74;;;22.21;100.00
13367;BME280;6752;52.612;13.630;2023-06-26T16:57:22;100525.96;;;22.15;100.00
13367;BME280;6752;52.612;13.630;2023-06-26T17:02:23;100534.92;;;21.69;100.00
13367;BME280;6752;52.612;13.630;2023-06-26T17:07:26;100558.57;;;21.55;100.00
13367;BME280;6752;52.612;13.630;2023-06-26T17:12:36;100548.16;;;21.75;100.00
13367;BME280;6752;52.612;13.630;2023-06-26T17:17:37;100549.82;;;21.95;100.00
13367;BME280;6752;52.612;13.630;2023-06-26T17:22:39;100545.30;;;21.82;100.00
13367;BME280;6752;52.612;13.630;2023-06-26T17:27:42;100549.17;;;22.00;100.00
13367;BME280;6752;52.612;13.630;2023-06-26T17:32:47;100563.24;;;21.97;100.00
13367;BME280;6752;52.612;13.630;2023-06-26T17:37:51;100545.09;;;22.16;100.00
13367;BME280;6752;52.612;13.630;2023-06-26T17:42:56;100554.64;;;22.36;100.00
13367;BME280;6752;52.612;13.630;2023-06-26T17:48:00;100559.45;;;22.30;100.00
13367;BME280;6752;52.612;13.630;2023-06-26T17:53:05;100568.23;;;22.19;100.00
13367;BME280;6752;52.612;13.630;2023-06-26T17:58:18;100569.13;;;21.93;100.00
13367;BME280;6752;52.612;13.630;2023-06-26T18:03:16;100589.19;;;21.97;100.00
13367;BME280;6752;52.612;13.630;2023-06-26T18:08:24;100583.65;;;21.78;100.00
13367;BME280;6752;52.612;13.630;2023-06-26T18:13:27;100595.16;;;21.75;100.00
13367;BME280;6752;52.612;13.630;2023-06-26T18:18:29;100613.05;;;21.76;100.00
13367;BME280;6752;52.612;13.630;2023-06-26T18:23:35;100604.80;;;21.83;100.00
13367;BME280;6752;52.612;13.630;2023-06-26T18:28:40;100613.60;;;21.78;100.00
13367;BME280;6752;52.612;13.630;2023-06-26T18:33:42;100627.33;;;21.79;100.00
13367;BME280;6752;52.612;13.630;2023-06-26T18:38:49;100615.81;;;21.79;100.00
13367;BME280;6752;52.612;13.630;2023-06-26T18:43:52;100613.12;;;21.83;100.00
13367;BME280;6752;52.612;13.630;2023-06-26T18:49:04;100613.52;;;21.62;100.00
13367;BME280;6752;52.612;13.630;2023-06-26T18:54:11;100620.41;;;21.55;100.00
13367;BME280;6752;52.612;13.630;2023-06-26T18:59:17;100606.44;;;21.39;100.00
13367;BME280;6752;52.612;13.630;2023-06-26T19:04:23;100618.19;;;21.28;100.00
13367;BME280;6752;52.612;13.630;2023-06-26T19:09:38;100615.00;;;21.31;100.00
13367;BME280;6752;52.612;13.630;2023-06-26T19:14:41;100617.98;;;21.37;100.00
13367;BME280;6752;52.612;13.630;2023-06-26T19:19:50;100616.33;;;21.19;100.00
13367;BME280;6752;52.612;13.630;2023-06-26T19:24:52;100623.27;;;21.02;100.00
13367;BME280;6752;52.612;13.630;2023-06-26T19:30:00;100631.92;;;20.83;100.00
13367;BME280;6752;52.612;13.630;2023-06-26T19:35:08;100634.97;;;20.79;100.00
13367;BME280;6752;52.612;13.630;2023-06-26T19:40:20;100642.62;;;20.36;100.00
13367;BME280;6752;52.612;13.630;2023-06-26T19:45:16;100647.63;;;20.29;100.00
13367;BME280;6752;52.612;13.630;2023-06-26T19:50:26;100653.56;;;20.07;100.00
13367;BME280;6752;52.612;13.630;2023-06-26T19:55:28;100663.09;;;20.15;100.00
13367;BME280;6752;52.612;13.630;2023-06-26T20:00:34;100662.55;;;19.78;100.00
13367;BME280;6752;52.612;13.630;2023-06-26T20:05:33;100642.30;;;19.48;100.00
13367;BME280;6752;52.612;13.630;2023-06-26T20:15:53;100668.99;;;19.43;100.00
13367;BME280;6752;52.612;13.630;2023-06-26T20:20:55;100675.62;;;19.32;100.00
13367;BME280;6752;52.612;13.630;2023-06-26T20:25:59;100674.40;;;19.16;100.00
13367;BME280;6752;52.612;13.630;2023-06-26T20:31:02;100680.77;;;18.81;100.00
13367;BME280;6752;52.612;13.630;2023-06-26T20:36:04;100666.14;;;18.78;100.00
13367;BME280;6752;52.612;13.630;2023-06-26T20:41:10;100665.58;;;18.89;100.00
13367;BME280;6752;52.612;13.630;2023-06-26T20:46:13;100663.22;;;18.66;100.00
13367;BME280;6752;52.612;13.630;2023-06-26T20:51:15;100662.97;;;18.70;100.00
13367;BME280;6752;52.612;13.630;2023-06-26T20:56:18;100662.36;;;18.61;100.00
13367;BME280;6752;52.612;13.630;2023-06-26T21:01:26;100669.67;;;18.61;100.00
13367;BME280;6752;52.612;13.630;2023-06-26T21:43:18;100711.69;;;17.50;100.00
13367;BME280;6752;52.612;13.630;2023-06-26T21:48:20;100712.70;;;17.34;100.00
13367;BME280;6752;52.612;13.630;2023-06-26T21:53:23;100719.92;;;17.27;100.00
13367;BME280;6752;52.612;13.630;2023-06-26T21:58:25;100723.18;;;17.19;100.00
13367;BME280;6752;52.612;13.630;2023-06-26T22:03:27;100725.09;;;17.16;100.00
13367;BME280;6752;52.612;13.630;2023-06-26T22:08:30;100733.56;;;17.07;100.00
13367;BME280;6752;52.612;13.630;2023-06-26T22:13:32;100738.09;;;16.91;100.00
13367;BME280;6752;52.612;13.630;2023-06-26T22:18:34;100738.08;;;16.88;100.00
13367;BME280;6752;52.612;13.630;2023-06-26T22:23:36;100742.73;;;16.85;100.00
13367;BME280;6752;52.612;13.630;2023-06-26T22:28:38;100741.62;;;16.84;100.00
13367;BME280;6752;52.612;13.630;2023-06-26T22:33:41;100737.50;;;16.73;100.00
13367;BME280;6752;52.612;13.630;2023-06-26T22:38:43;100742.02;;;16.70;100.00
13367;BME280;6752;52.612;13.630;2023-06-26T22:43:45;100749.05;;;16.72;100.00
13367;BME280;6752;52.612;13.630;2023-06-26T22:48:48;100745.45;;;16.69;100.00
13367;BME280;6752;52.612;13.630;2023-06-26T22:53:50;100748.39;;;16.63;100.00
13367;BME280;6752;52.612;13.630;2023-06-26T22:58:53;100740.97;;;16.52;100.00
13367;BME280;6752;52.612;13.630;2023-06-26T23:03:55;100742.73;;;16.50;100.00
13367;BME280;6752;52.612;13.630;2023-06-26T23:08:57;100743.98;;;16.51;100.00
13367;BME280;6752;52.612;13.630;2023-06-26T23:14:00;100752.25;;;16.29;100.00
13367;BME280;6752;52.612;13.630;2023-06-26T23:19:02;100750.72;;;16.27;100.00
13367;BME280;6752;52.612;13.630;2023-06-26T23:24:06;100747.12;;;16.13;100.00
13367;BME280;6752;52.612;13.630;2023-06-26T23:29:08;100748.67;;;16.06;100.00
13367;BME280;6752;52.612;13.630;2023-06-26T23:34:10;100757.30;;;16.13;100.00
13367;BME280;6752;52.612;13.630;2023-06-26T23:39:12;100759.37;;;16.05;100.00
13367;BME280;6752;52.612;13.630;2023-06-26T23:44:15;100756.98;;;16.01;100.00
13367;BME280;6752;52.612;13.630;2023-06-26T23:49:17;100776.36;;;15.89;100.00
13367;BME280;6752;52.612;13.630;2023-06-26T23:54:19;100783.67;;;15.83;100.00
13367;BME280;6752;52.612;13.630;2023-06-26T23:59:21;100782.52;;;15.79;100.00
